createdAt,value
2019-05-15T00:00:09.867Z,1.90
2019-05-15T00:01:14.025Z,2.17
2019-05-15T00:02:18.373Z,2.08
2019-05-15T00:03:22.651Z,2.27
2019-05-15T00:04:28.113Z,2.08
2019-05-15T00:05:32.036Z,1.90
2019-05-15T00:06:35.641Z,2.02
2019-05-15T00:07:39.773Z,1.92
2019-05-15T00:08:43.344Z,2.17
2019-05-15T00:09:49.126Z,1.80
2019-05-15T00:10:52.711Z,1.90
2019-05-15T00:11:58.929Z,2.02
2019-05-15T00:13:02.056Z,1.70
2019-05-15T00:14:08.516Z,1.90
2019-05-15T00:15:11.590Z,1.92
2019-05-15T00:16:17.978Z,2.20
2019-05-15T00:17:20.968Z,1.80
2019-05-15T00:18:25.154Z,1.80
2019-05-15T00:19:28.702Z,1.70
2019-05-15T00:20:32.818Z,2.10
2019-05-15T00:21:38.275Z,2.10
2019-05-15T00:22:42.197Z,1.57
2019-05-15T00:23:45.754Z,2.40
2019-05-15T00:24:49.879Z,2.83
2019-05-15T00:25:53.434Z,1.40
2019-05-15T00:26:58.838Z,2.10
2019-05-15T00:28:02.468Z,1.70
2019-05-15T00:29:14.689Z,2.30
2019-05-15T00:30:11.932Z,2.20
2019-05-15T00:31:18.403Z,1.85
2019-05-15T00:32:21.310Z,2.35
2019-05-15T00:33:25.418Z,2.00
2019-05-15T00:34:28.992Z,2.17
2019-05-15T00:35:33.145Z,1.75
2019-05-15T00:36:38.275Z,1.80
2019-05-15T00:37:41.979Z,2.20
2019-05-15T00:38:45.543Z,2.50
2019-05-15T00:39:49.653Z,2.00
2019-05-15T00:40:53.279Z,2.33
2019-05-15T00:41:58.984Z,1.90
2019-05-15T00:43:02.671Z,1.77
2019-05-15T00:44:09.054Z,2.30
2019-05-15T00:45:12.229Z,2.45
2019-05-15T00:46:18.200Z,2.05
2019-05-15T00:47:21.590Z,2.00
2019-05-15T00:48:29.047Z,1.72
2019-05-15T00:49:31.561Z,2.22
2019-05-15T00:50:35.714Z,2.10
2019-05-15T00:51:39.345Z,1.87
2019-05-15T00:52:43.602Z,1.72
2019-05-15T00:53:48.323Z,2.30
2019-05-15T00:54:52.528Z,1.90
2019-05-15T00:55:57.924Z,2.67
2019-05-15T00:57:01.857Z,2.17
2019-05-15T00:58:05.406Z,1.95
2019-05-15T00:59:16.541Z,2.50
2019-05-15T01:00:18.666Z,1.95
2019-05-15T01:01:22.842Z,2.00
2019-05-15T01:02:28.540Z,1.82
2019-05-15T01:03:32.205Z,2.20
2019-05-15T01:04:35.766Z,1.87
2019-05-15T01:05:40.858Z,2.35
2019-05-15T01:06:44.411Z,1.80
2019-05-15T01:07:48.520Z,1.80
2019-05-15T01:08:52.087Z,1.82
2019-05-15T01:09:57.941Z,1.98
2019-05-15T01:11:01.618Z,2.30
2019-05-15T01:12:05.723Z,1.70
2019-05-15T01:13:09.283Z,2.00
2019-05-15T01:14:13.407Z,2.10
2019-05-15T01:15:18.416Z,2.10
2019-05-15T01:16:22.640Z,2.10
2019-05-15T01:17:26.214Z,2.02
2019-05-15T01:18:30.371Z,2.02
2019-05-15T01:19:33.937Z,2.20
2019-05-15T01:20:39.050Z,2.20
2019-05-15T01:21:42.987Z,2.50
2019-05-15T01:22:48.493Z,2.30
2019-05-15T01:23:52.227Z,2.35
2019-05-15T01:24:58.840Z,2.37
2019-05-15T01:26:01.544Z,2.35
2019-05-15T01:27:05.747Z,2.55
2019-05-15T01:28:09.656Z,1.92
2019-05-15T01:29:13.871Z,2.50
2019-05-15T01:30:17.993Z,2.70
2019-05-15T01:31:22.127Z,2.45
2019-05-15T01:32:25.696Z,2.27
2019-05-15T01:33:29.861Z,1.70
2019-05-15T01:34:33.376Z,2.65
2019-05-15T01:35:38.353Z,2.67
2019-05-15T01:36:42.285Z,2.10
2019-05-15T01:37:48.351Z,2.05
2019-05-15T01:38:51.609Z,2.30
2019-05-15T01:39:57.985Z,2.30
2019-05-15T01:41:00.976Z,2.33
2019-05-15T01:42:05.191Z,2.40
2019-05-15T01:43:09.290Z,1.98
2019-05-15T01:44:13.543Z,2.72
2019-05-15T01:45:18.922Z,2.40
2019-05-15T01:46:23.102Z,2.25
2019-05-15T01:47:28.190Z,2.60
2019-05-15T01:48:32.274Z,2.20
2019-05-15T01:49:38.241Z,2.92
2019-05-15T01:50:41.642Z,2.15
2019-05-15T01:51:45.204Z,2.47
2019-05-15T01:52:49.318Z,2.50
2019-05-15T01:53:52.875Z,1.90
2019-05-15T01:54:58.228Z,2.25
2019-05-15T01:56:02.073Z,2.12
2019-05-15T01:57:06.184Z,1.87
2019-05-15T01:58:09.744Z,2.33
2019-05-15T01:59:13.340Z,2.15
2019-05-15T02:00:18.826Z,2.75
2019-05-15T02:01:22.845Z,1.90
2019-05-15T02:02:28.015Z,2.05
2019-05-15T02:03:32.027Z,2.02
2019-05-15T02:04:35.836Z,2.05
2019-05-15T02:05:39.832Z,2.10
2019-05-15T02:06:43.628Z,2.02
2019-05-15T02:07:47.967Z,2.00
2019-05-15T02:08:51.716Z,1.65
2019-05-15T02:09:55.648Z,1.82
2019-05-15T02:10:59.391Z,2.30
2019-05-15T02:12:03.367Z,2.62
2019-05-15T02:13:08.585Z,1.82
2019-05-15T02:14:12.747Z,1.80
2019-05-15T02:15:18.888Z,2.40
2019-05-15T02:16:22.348Z,2.10
2019-05-15T02:17:28.165Z,1.98
2019-05-15T02:18:31.716Z,2.20
2019-05-15T02:19:35.461Z,2.10
2019-05-15T02:20:39.399Z,2.30
2019-05-15T02:21:43.140Z,1.85
2019-05-15T02:22:48.514Z,2.12
2019-05-15T02:23:52.363Z,2.15
2019-05-15T02:24:58.962Z,2.02
2019-05-15T02:26:01.683Z,2.20
2019-05-15T02:27:05.630Z,2.27
2019-05-15T02:28:09.648Z,2.77
2019-05-15T02:29:16.620Z,2.30
2019-05-15T02:30:28.344Z,2.62
2019-05-15T02:31:24.756Z,2.20
2019-05-15T02:32:30.155Z,2.40
2019-05-15T02:33:34.129Z,2.47
2019-05-15T02:34:39.601Z,2.10
2019-05-15T02:35:43.475Z,2.60
2019-05-15T02:36:49.274Z,2.20
2019-05-15T02:37:52.856Z,2.50
2019-05-15T02:38:59.485Z,2.55
2019-05-15T02:40:02.178Z,2.58
2019-05-15T02:41:09.494Z,2.45
2019-05-15T02:42:11.463Z,2.20
2019-05-15T02:43:15.275Z,2.60
2019-05-15T02:44:20.129Z,2.02
2019-05-15T02:45:23.957Z,2.15
2019-05-15T02:46:30.080Z,2.70
2019-05-15T02:47:33.300Z,2.40
2019-05-15T02:48:40.607Z,2.45
2019-05-15T02:49:42.650Z,2.60
2019-05-15T02:50:49.841Z,2.80
2019-05-15T02:51:52.024Z,2.35
2019-05-15T02:52:55.968Z,2.75
2019-05-15T02:53:59.708Z,2.30
2019-05-15T02:55:04.307Z,2.22
2019-05-15T02:56:09.389Z,2.15
2019-05-15T02:57:13.636Z,2.55
2019-05-15T02:58:21.155Z,3.15
2019-05-15T02:59:22.980Z,2.30
2019-05-15T03:00:41.125Z,2.60
2019-05-15T03:01:32.345Z,2.45
2019-05-15T03:02:36.091Z,2.30
2019-05-15T03:03:40.029Z,2.83
2019-05-15T03:04:43.773Z,2.33
2019-05-15T03:05:49.839Z,2.08
2019-05-15T03:06:53.171Z,2.60
2019-05-15T03:07:59.400Z,2.40
2019-05-15T03:09:02.533Z,2.55
2019-05-15T03:10:09.382Z,2.47
2019-05-15T03:11:12.323Z,3.10
2019-05-15T03:12:19.353Z,2.40
2019-05-15T03:13:21.796Z,2.75
2019-05-15T03:14:28.887Z,2.58
2019-05-15T03:15:31.223Z,2.50
2019-05-15T03:16:35.280Z,2.52
2019-05-15T03:17:40.366Z,2.87
2019-05-15T03:18:44.795Z,3.02
2019-05-15T03:19:49.706Z,3.22
2019-05-15T03:20:53.975Z,2.70
2019-05-15T03:21:59.834Z,2.92
2019-05-15T03:23:03.376Z,3.08
2019-05-15T03:24:09.840Z,2.37
2019-05-15T03:25:12.979Z,2.50
2019-05-15T03:26:19.501Z,2.87
2019-05-15T03:27:22.342Z,2.80
2019-05-15T03:28:29.181Z,2.80
2019-05-15T03:29:31.876Z,2.87
2019-05-15T03:31:07.141Z,3.22
2019-05-15T03:31:59.121Z,2.62
2019-05-15T03:32:55.721Z,3.00
2019-05-15T03:33:53.978Z,2.92
2019-05-15T03:35:04.139Z,2.75
2019-05-15T03:36:03.878Z,2.47
2019-05-15T03:37:12.163Z,2.98
2019-05-15T03:38:13.440Z,2.77
2019-05-15T03:39:19.035Z,2.67
2019-05-15T03:40:22.944Z,2.60
2019-05-15T03:41:29.623Z,3.52
2019-05-15T03:42:32.324Z,2.40
2019-05-15T03:43:39.121Z,3.10
2019-05-15T03:44:41.638Z,3.15
2019-05-15T03:45:45.385Z,3.00
2019-05-15T03:46:49.432Z,3.00
2019-05-15T03:47:53.249Z,3.00
2019-05-15T03:49:00.085Z,3.08
2019-05-15T03:50:03.127Z,2.40
2019-05-15T03:51:09.172Z,3.08
2019-05-15T03:52:12.454Z,2.87
2019-05-15T03:53:18.971Z,2.40
2019-05-15T03:54:21.849Z,3.30
2019-05-15T03:55:25.907Z,2.72
2019-05-15T03:56:30.463Z,3.02
2019-05-15T03:57:34.383Z,3.05
2019-05-15T03:58:40.072Z,2.92
2019-05-15T03:59:43.725Z,3.00
2019-05-15T04:00:49.821Z,2.50
2019-05-15T04:01:53.109Z,3.50
2019-05-15T04:02:59.063Z,2.98
2019-05-15T04:04:02.433Z,2.87
2019-05-15T04:05:11.158Z,2.65
2019-05-15T04:06:13.027Z,2.83
2019-05-15T04:07:18.810Z,2.83
2019-05-15T04:08:22.482Z,2.75
2019-05-15T04:09:29.182Z,2.60
2019-05-15T04:10:31.803Z,3.30
2019-05-15T04:11:38.561Z,2.90
2019-05-15T04:12:41.263Z,3.33
2019-05-15T04:13:45.046Z,2.90
2019-05-15T04:14:50.004Z,2.58
2019-05-15T04:15:54.003Z,2.55
2019-05-15T04:16:59.374Z,2.50
2019-05-15T04:18:03.476Z,2.62
2019-05-15T04:19:09.665Z,2.80
2019-05-15T04:20:13.801Z,2.83
2019-05-15T04:21:20.075Z,2.50
2019-05-15T04:22:23.191Z,2.50
2019-05-15T04:23:29.774Z,2.67
2019-05-15T04:24:33.666Z,2.72
2019-05-15T04:25:39.279Z,2.62
2019-05-15T04:26:48.499Z,2.70
2019-05-15T04:27:51.771Z,2.25
2019-05-15T04:29:00.130Z,2.72
2019-05-15T04:30:06.264Z,2.27
2019-05-15T04:31:10.056Z,3.00
2019-05-15T04:32:13.989Z,2.05
2019-05-15T04:33:19.854Z,2.90
2019-05-15T04:34:23.436Z,2.30
2019-05-15T04:35:28.987Z,2.87
2019-05-15T04:36:32.758Z,2.77
2019-05-15T04:37:40.165Z,2.45
2019-05-15T04:38:42.075Z,3.20
2019-05-15T04:39:48.956Z,3.40
2019-05-15T04:40:51.459Z,2.83
2019-05-15T04:41:55.215Z,2.62
2019-05-15T04:42:59.425Z,3.00
2019-05-15T04:44:03.199Z,2.30
2019-05-15T04:45:10.035Z,2.17
2019-05-15T04:46:13.324Z,2.65
2019-05-15T04:47:19.230Z,1.90
2019-05-15T04:48:22.649Z,2.35
2019-05-15T04:49:29.089Z,2.17
2019-05-15T04:50:32.101Z,1.80
2019-05-15T04:51:38.814Z,2.12
2019-05-15T04:52:43.217Z,2.20
2019-05-15T04:53:50.313Z,1.90
2019-05-15T04:54:52.396Z,2.00
2019-05-15T04:55:59.465Z,1.87
2019-05-15T04:57:02.330Z,2.42
2019-05-15T04:58:06.228Z,2.27
2019-05-15T04:59:10.361Z,2.15
2019-05-15T05:00:14.761Z,2.40
2019-05-15T05:01:19.986Z,2.67
2019-05-15T05:02:27.199Z,2.45
2019-05-15T05:03:29.665Z,2.98
2019-05-15T05:04:33.923Z,2.37
2019-05-15T05:05:38.725Z,2.55
2019-05-15T05:06:42.981Z,2.10
2019-05-15T05:07:49.107Z,2.58
2019-05-15T05:08:52.638Z,2.37
2019-05-15T05:09:59.429Z,2.20
2019-05-15T05:11:02.053Z,2.25
2019-05-15T05:12:08.403Z,1.90
2019-05-15T05:13:11.474Z,2.35
2019-05-15T05:14:15.222Z,2.40
2019-05-15T05:15:19.162Z,2.50
2019-05-15T05:16:22.896Z,2.08
2019-05-15T05:17:28.905Z,2.00
2019-05-15T05:18:32.252Z,1.90
2019-05-15T05:19:39.939Z,2.30
2019-05-15T05:20:41.579Z,2.10
2019-05-15T05:21:47.828Z,2.00
2019-05-15T05:22:50.975Z,2.45
2019-05-15T05:23:54.911Z,1.65
2019-05-15T05:24:58.650Z,2.02
2019-05-15T05:26:02.583Z,1.95
2019-05-15T05:27:08.599Z,2.15
2019-05-15T05:28:11.967Z,2.30
2019-05-15T05:29:17.751Z,2.00
2019-05-15T05:30:21.640Z,2.08
2019-05-15T05:31:25.450Z,1.72
2019-05-15T05:32:34.816Z,1.85
2019-05-15T05:33:34.844Z,2.37
2019-05-15T05:34:39.281Z,2.30
2019-05-15T05:35:43.174Z,1.65
2019-05-15T05:36:48.021Z,2.35
2019-05-15T05:37:51.873Z,2.52
2019-05-15T05:38:58.320Z,2.10
2019-05-15T05:40:01.187Z,2.90
2019-05-15T05:41:05.184Z,1.95
2019-05-15T05:42:08.925Z,2.00
2019-05-15T05:43:12.862Z,1.82
2019-05-15T05:44:18.846Z,2.20
2019-05-15T05:45:23.056Z,2.45
2019-05-15T05:46:28.045Z,2.05
2019-05-15T05:47:32.057Z,2.83
2019-05-15T05:48:38.134Z,3.52
2019-05-15T05:49:41.528Z,2.58
2019-05-15T05:50:49.163Z,2.20
2019-05-15T05:51:51.891Z,2.12
2019-05-15T05:52:57.839Z,2.30
2019-05-15T05:54:01.248Z,2.35
2019-05-15T05:55:08.821Z,2.58
2019-05-15T05:56:12.256Z,1.90
2019-05-15T05:57:16.047Z,2.05
2019-05-15T05:58:20.063Z,2.65
2019-05-15T05:59:23.844Z,2.50
2019-05-15T06:00:39.619Z,1.77
2019-05-15T06:01:44.293Z,2.00
2019-05-15T06:02:52.167Z,2.15
2019-05-15T06:03:53.687Z,2.02
2019-05-15T06:04:58.252Z,1.98
2019-05-15T06:06:02.178Z,2.45
2019-05-15T06:07:13.771Z,2.05
2019-05-15T06:08:11.979Z,2.10
2019-05-15T06:09:18.140Z,1.85
2019-05-15T06:10:21.340Z,2.00
2019-05-15T06:11:27.620Z,2.40
2019-05-15T06:12:30.716Z,2.25
2019-05-15T06:13:34.656Z,1.92
2019-05-15T06:14:38.401Z,2.25
2019-05-15T06:15:42.333Z,2.50
2019-05-15T06:16:48.124Z,2.50
2019-05-15T06:17:51.760Z,1.85
2019-05-15T06:18:55.508Z,2.00
2019-05-15T06:19:59.455Z,2.00
2019-05-15T06:21:03.187Z,2.33
2019-05-15T06:22:08.802Z,2.87
2019-05-15T06:23:12.680Z,2.20
2019-05-15T06:24:18.053Z,1.90
2019-05-15T06:25:21.964Z,2.05
2019-05-15T06:26:28.137Z,2.02
2019-05-15T06:27:31.343Z,2.30
2019-05-15T06:28:35.352Z,2.00
2019-05-15T06:29:39.106Z,2.10
2019-05-15T06:30:43.037Z,2.27
2019-05-15T06:31:48.421Z,2.37
2019-05-15T06:33:04.533Z,1.98
2019-05-15T06:33:58.181Z,2.30
2019-05-15T06:35:02.238Z,2.20
2019-05-15T06:36:08.655Z,2.72
2019-05-15T06:37:11.653Z,2.52
2019-05-15T06:38:15.432Z,2.33
2019-05-15T06:39:19.379Z,2.08
2019-05-15T06:40:23.264Z,2.37
2019-05-15T06:41:28.637Z,2.30
2019-05-15T06:42:32.615Z,2.30
2019-05-15T06:43:38.665Z,2.15
2019-05-15T06:44:41.969Z,1.85
2019-05-15T06:45:48.465Z,2.02
2019-05-15T06:46:51.297Z,1.75
2019-05-15T06:47:55.256Z,1.65
2019-05-15T06:48:58.996Z,2.05
2019-05-15T06:50:03.496Z,1.98
2019-05-15T06:51:08.932Z,1.95
2019-05-15T06:52:13.014Z,2.00
2019-05-15T06:53:19.163Z,2.22
2019-05-15T06:54:22.375Z,2.02
2019-05-15T06:55:26.131Z,1.60
2019-05-15T06:56:30.055Z,1.80
2019-05-15T06:57:33.842Z,1.87
2019-05-15T06:58:38.844Z,1.90
2019-05-15T06:59:43.179Z,1.80
2019-05-15T07:00:48.871Z,2.02
2019-05-15T07:01:52.512Z,2.22
2019-05-15T07:02:58.326Z,2.02
2019-05-15T07:04:02.196Z,1.90
2019-05-15T07:05:07.842Z,2.30
2019-05-15T07:06:11.854Z,1.92
2019-05-15T07:07:18.063Z,2.10
2019-05-15T07:08:21.176Z,2.25
2019-05-15T07:09:25.110Z,2.67
2019-05-15T07:10:29.027Z,3.40
2019-05-15T07:11:32.954Z,2.00
2019-05-15T07:12:38.790Z,2.30
2019-05-15T07:13:42.275Z,1.75
2019-05-15T07:14:46.064Z,1.72
2019-05-15T07:15:50.027Z,1.70
2019-05-15T07:16:53.781Z,1.32
2019-05-15T07:17:58.110Z,1.20
2019-05-15T07:19:01.974Z,1.30
2019-05-15T07:20:08.775Z,1.52
2019-05-15T07:21:12.602Z,1.55
2019-05-15T07:22:18.233Z,1.20
2019-05-15T07:23:22.464Z,1.40
2019-05-15T07:24:28.769Z,1.20
2019-05-15T07:25:31.787Z,1.02
2019-05-15T07:26:38.900Z,1.32
2019-05-15T07:27:41.299Z,1.30
2019-05-15T07:28:45.243Z,1.15
2019-05-15T07:29:48.984Z,1.20
2019-05-15T07:30:52.915Z,1.25
2019-05-15T07:31:58.609Z,1.25
2019-05-15T07:33:02.278Z,1.60
2019-05-15T07:34:08.165Z,1.27
2019-05-15T07:35:13.544Z,1.22
2019-05-15T07:36:19.323Z,1.50
2019-05-15T07:37:22.904Z,1.10
2019-05-15T07:38:28.231Z,1.52
2019-05-15T07:39:32.292Z,1.20
2019-05-15T07:40:38.480Z,1.30
2019-05-15T07:41:41.744Z,1.27
2019-05-15T07:42:45.500Z,1.60
2019-05-15T07:43:49.690Z,1.57
2019-05-15T07:44:53.433Z,1.27
2019-05-15T07:45:59.017Z,1.32
2019-05-15T07:47:02.947Z,1.17
2019-05-15T07:48:09.111Z,1.47
2019-05-15T07:49:12.419Z,1.20
2019-05-15T07:50:19.560Z,1.52
2019-05-15T07:51:22.280Z,1.47
2019-05-15T07:52:28.659Z,1.50
2019-05-15T07:53:31.610Z,1.10
2019-05-15T07:54:35.586Z,1.40
2019-05-15T07:55:39.538Z,1.45
2019-05-15T07:56:43.570Z,1.40
2019-05-15T07:57:49.605Z,1.55
2019-05-15T07:58:52.997Z,1.30
2019-05-15T07:59:58.686Z,1.50
2019-05-15T08:01:05.290Z,1.20
2019-05-15T08:02:08.423Z,1.40
2019-05-15T08:03:12.431Z,1.37
2019-05-15T08:04:26.130Z,1.30
2019-05-15T08:05:21.939Z,1.37
2019-05-15T08:06:25.692Z,1.30
2019-05-15T08:07:29.622Z,1.40
2019-05-15T08:08:33.408Z,1.30
2019-05-15T08:09:39.114Z,1.42
2019-05-15T08:10:42.782Z,1.45
2019-05-15T08:11:48.605Z,1.60
2019-05-15T08:12:52.103Z,1.20
2019-05-15T08:13:58.101Z,1.30
2019-05-15T08:15:01.466Z,1.20
2019-05-15T08:16:05.403Z,1.40
2019-05-15T08:17:09.151Z,1.45
2019-05-15T08:18:13.180Z,1.55
2019-05-15T08:19:18.391Z,0.98
2019-05-15T08:20:24.267Z,1.37
2019-05-15T08:21:29.232Z,1.32
2019-05-15T08:22:33.250Z,1.30
2019-05-15T08:23:39.220Z,1.40
2019-05-15T08:24:42.619Z,1.37
2019-05-15T08:25:48.404Z,1.10
2019-05-15T08:26:52.015Z,1.10
2019-05-15T08:27:55.794Z,1.25
2019-05-15T08:28:59.742Z,1.35
2019-05-15T08:30:05.027Z,1.20
2019-05-15T08:31:10.078Z,1.30
2019-05-15T08:32:14.407Z,1.00
2019-05-15T08:33:18.723Z,1.47
2019-05-15T08:34:22.718Z,1.40
2019-05-15T08:35:29.047Z,1.20
2019-05-15T08:36:32.112Z,1.02
2019-05-15T08:37:38.281Z,1.10
2019-05-15T08:38:41.511Z,0.70
2019-05-15T08:39:45.496Z,0.95
2019-05-15T08:40:49.364Z,1.10
2019-05-15T08:41:53.292Z,0.95
2019-05-15T08:43:01.884Z,0.90
2019-05-15T08:44:02.752Z,0.70
2019-05-15T08:45:09.175Z,0.70
2019-05-15T08:46:12.958Z,0.80
2019-05-15T08:47:18.891Z,1.00
2019-05-15T08:48:22.311Z,0.90
2019-05-15T08:49:28.253Z,1.02
2019-05-15T08:50:31.843Z,1.00
2019-05-15T08:51:37.974Z,0.80
2019-05-15T08:52:41.156Z,1.00
2019-05-15T08:53:44.903Z,0.80
2019-05-15T08:54:48.903Z,0.85
2019-05-15T08:55:52.636Z,1.10
2019-05-15T08:56:58.991Z,0.90
2019-05-15T08:58:07.439Z,1.30
2019-05-15T08:59:08.831Z,1.20
2019-05-15T09:00:14.709Z,1.00
2019-05-15T09:01:18.648Z,0.80
2019-05-15T09:02:22.505Z,1.00
2019-05-15T09:03:28.541Z,0.72
2019-05-15T09:04:35.046Z,1.05
2019-05-15T09:05:38.795Z,0.80
2019-05-15T09:06:42.820Z,1.00
2019-05-15T09:07:48.679Z,1.00
2019-05-15T09:08:52.184Z,0.90
2019-05-15T09:09:57.949Z,1.07
2019-05-15T09:11:02.170Z,0.95
2019-05-15T09:12:08.325Z,1.00
2019-05-15T09:13:11.601Z,1.07
2019-05-15T09:14:15.571Z,0.90
2019-05-15T09:15:19.967Z,1.07
2019-05-15T09:16:23.935Z,0.88
2019-05-15T09:17:28.614Z,0.90
2019-05-15T09:18:32.627Z,0.90
2019-05-15T09:19:38.649Z,1.35
2019-05-15T09:20:42.014Z,1.02
2019-05-15T09:21:45.751Z,0.85
2019-05-15T09:22:49.699Z,1.10
2019-05-15T09:23:53.540Z,0.90
2019-05-15T09:24:58.954Z,0.90
2019-05-15T09:26:02.878Z,0.80
2019-05-15T09:27:10.014Z,0.90
2019-05-15T09:28:12.252Z,0.98
2019-05-15T09:29:18.305Z,0.93
2019-05-15T09:30:21.823Z,0.80
2019-05-15T09:31:28.266Z,0.80
2019-05-15T09:32:31.198Z,0.80
2019-05-15T09:33:35.508Z,0.90
2019-05-15T09:34:50.547Z,1.15
2019-05-15T09:35:44.831Z,0.80
2019-05-15T09:36:48.780Z,0.82
2019-05-15T09:37:52.928Z,0.80
2019-05-15T09:38:58.500Z,1.10
2019-05-15T09:40:02.402Z,0.70
2019-05-15T09:41:08.702Z,1.00
2019-05-15T09:42:11.870Z,1.00
2019-05-15T09:43:17.976Z,1.05
2019-05-15T09:44:22.082Z,0.95
2019-05-15T09:45:26.046Z,1.00
2019-05-15T09:46:29.992Z,1.35
2019-05-15T09:47:33.774Z,0.70
2019-05-15T09:48:39.040Z,1.00
2019-05-15T09:49:43.075Z,0.80
2019-05-15T09:50:49.327Z,1.12
2019-05-15T09:51:52.443Z,1.00
2019-05-15T09:52:58.648Z,0.85
2019-05-15T09:54:01.779Z,1.02
2019-05-15T09:55:09.466Z,0.90
2019-05-15T09:56:13.226Z,1.25
2019-05-15T09:57:18.813Z,1.20
2019-05-15T09:58:22.738Z,0.80
2019-05-15T09:59:28.119Z,0.90
2019-05-15T10:00:32.171Z,1.00
2019-05-15T10:01:36.138Z,0.95
2019-05-15T10:02:39.966Z,1.02
2019-05-15T10:03:44.659Z,1.20
2019-05-15T10:05:05.166Z,1.15
2019-05-15T10:05:54.040Z,1.07
2019-05-15T10:06:57.851Z,1.10
2019-05-15T10:08:01.779Z,0.90
2019-05-15T10:09:09.056Z,1.07
2019-05-15T10:10:13.598Z,1.12
2019-05-15T10:11:19.643Z,0.98
2019-05-15T10:12:22.946Z,1.00
2019-05-15T10:13:28.826Z,1.10
2019-05-15T10:14:32.332Z,1.10
2019-05-15T10:15:38.820Z,1.10
2019-05-15T10:16:41.671Z,1.12
2019-05-15T10:17:45.451Z,1.10
2019-05-15T10:18:50.860Z,1.30
2019-05-15T10:19:54.864Z,1.00
2019-05-15T10:20:58.811Z,1.07
2019-05-15T10:22:02.564Z,1.02
2019-05-15T10:23:08.831Z,1.07
2019-05-15T10:24:11.920Z,0.90
2019-05-15T10:25:18.768Z,1.10
2019-05-15T10:26:21.531Z,1.40
2019-05-15T10:27:25.474Z,1.20
2019-05-15T10:28:29.515Z,1.10
2019-05-15T10:29:33.464Z,0.90
2019-05-15T10:30:39.465Z,1.10
2019-05-15T10:31:42.891Z,1.07
2019-05-15T10:32:48.695Z,1.10
2019-05-15T10:33:52.244Z,1.17
2019-05-15T10:34:58.469Z,1.00
2019-05-15T10:36:01.674Z,1.15
2019-05-15T10:37:05.471Z,1.25
2019-05-15T10:38:09.395Z,1.30
2019-05-15T10:39:13.298Z,1.22
2019-05-15T10:40:20.436Z,1.20
2019-05-15T10:41:23.523Z,1.15
2019-05-15T10:42:29.015Z,1.40
2019-05-15T10:43:32.929Z,1.02
2019-05-15T10:44:39.080Z,1.17
2019-05-15T10:45:43.390Z,1.40
2019-05-15T10:46:48.292Z,1.25
2019-05-15T10:47:52.221Z,1.32
2019-05-15T10:48:58.441Z,1.20
2019-05-15T10:50:01.605Z,1.40
2019-05-15T10:51:07.269Z,1.20
2019-05-15T10:52:11.394Z,1.40
2019-05-15T10:53:18.069Z,1.35
2019-05-15T10:54:21.034Z,1.20
2019-05-15T10:55:25.103Z,1.00
2019-05-15T10:56:29.302Z,1.20
2019-05-15T10:57:33.549Z,1.15
2019-05-15T10:58:39.282Z,1.75
2019-05-15T10:59:42.955Z,1.35
2019-05-15T11:00:49.393Z,1.60
2019-05-15T11:01:52.470Z,1.15
2019-05-15T11:02:57.945Z,1.10
2019-05-15T11:04:01.867Z,1.22
2019-05-15T11:05:12.619Z,1.40
2019-05-15T11:06:18.332Z,1.60
2019-05-15T11:07:22.024Z,1.27
2019-05-15T11:08:28.801Z,1.30
2019-05-15T11:09:31.413Z,1.20
2019-05-15T11:10:41.454Z,1.45
2019-05-15T11:11:40.762Z,1.20
2019-05-15T11:12:44.687Z,1.20
2019-05-15T11:13:48.432Z,1.30
2019-05-15T11:14:52.408Z,1.17
2019-05-15T11:15:56.151Z,1.20
2019-05-15T11:17:00.135Z,1.20
2019-05-15T11:18:03.879Z,1.25
2019-05-15T11:19:08.089Z,1.25
2019-05-15T11:20:13.396Z,0.90
2019-05-15T11:21:19.013Z,1.20
2019-05-15T11:22:22.916Z,1.05
2019-05-15T11:23:29.162Z,1.15
2019-05-15T11:24:32.566Z,1.10
2019-05-15T11:25:37.756Z,1.05
2019-05-15T11:26:41.677Z,1.10
2019-05-15T11:27:48.206Z,1.25
2019-05-15T11:28:51.111Z,1.22
2019-05-15T11:29:55.048Z,0.98
2019-05-15T11:30:59.586Z,1.00
2019-05-15T11:32:03.565Z,1.12
2019-05-15T11:33:09.540Z,1.22
2019-05-15T11:34:12.898Z,1.05
2019-05-15T11:35:18.622Z,1.35
2019-05-15T11:36:22.315Z,1.02
2019-05-15T11:37:28.267Z,1.20
2019-05-15T11:38:31.716Z,1.30
2019-05-15T11:39:35.506Z,1.20
2019-05-15T11:40:39.412Z,1.25
2019-05-15T11:41:43.167Z,1.12
2019-05-15T11:42:48.782Z,1.00
2019-05-15T11:43:52.722Z,1.07
2019-05-15T11:44:58.473Z,1.57
2019-05-15T11:46:02.135Z,1.37
2019-05-15T11:47:06.144Z,1.15
2019-05-15T11:48:09.901Z,0.98
2019-05-15T11:49:13.877Z,1.20
2019-05-15T11:50:20.569Z,1.12
2019-05-15T11:51:23.872Z,1.22
2019-05-15T11:52:29.469Z,1.17
2019-05-15T11:53:33.201Z,1.22
2019-05-15T11:54:38.586Z,1.15
2019-05-15T11:55:42.658Z,1.05
2019-05-15T11:56:49.008Z,1.05
2019-05-15T11:57:55.505Z,1.22
2019-05-15T11:58:57.416Z,1.32
2019-05-15T12:00:01.571Z,1.47
2019-05-15T12:01:05.529Z,1.05
2019-05-15T12:02:09.694Z,1.10
2019-05-15T12:03:13.459Z,1.25
2019-05-15T12:04:27.635Z,1.22
2019-05-15T12:05:22.864Z,1.17
2019-05-15T12:06:28.622Z,1.02
2019-05-15T12:07:32.218Z,1.35
2019-05-15T12:08:38.385Z,0.98
2019-05-15T12:09:41.545Z,1.00
2019-05-15T12:10:45.483Z,1.25
2019-05-15T12:11:49.272Z,1.00
2019-05-15T12:12:53.203Z,1.30
2019-05-15T12:13:56.985Z,1.20
2019-05-15T12:15:00.902Z,1.10
2019-05-15T12:16:04.752Z,1.05
2019-05-15T12:17:14.995Z,1.02
2019-05-15T12:18:14.100Z,1.17
2019-05-15T12:19:18.073Z,1.25
2019-05-15T12:20:22.860Z,1.07
2019-05-15T12:21:28.552Z,1.20
2019-05-15T12:22:32.191Z,1.50
2019-05-15T12:23:38.138Z,1.40
2019-05-15T12:24:41.621Z,1.15
2019-05-15T12:25:48.557Z,1.22
2019-05-15T12:26:50.950Z,1.12
2019-05-15T12:27:54.884Z,1.47
2019-05-15T12:28:59.107Z,1.67
2019-05-15T12:30:03.243Z,1.30
2019-05-15T12:31:08.962Z,1.60
2019-05-15T12:32:26.554Z,1.30
2019-05-15T12:33:18.478Z,1.20
2019-05-15T12:34:22.560Z,1.42
2019-05-15T12:35:29.366Z,1.30
2019-05-15T12:36:50.833Z,1.42
2019-05-15T12:37:39.918Z,1.82
2019-05-15T12:38:43.026Z,1.20
2019-05-15T12:39:49.151Z,1.40
2019-05-15T13:00:38.333Z,1.60
2019-05-15T13:01:42.315Z,1.40
2019-05-15T13:02:46.282Z,1.80
2019-05-15T13:03:50.037Z,1.52
2019-05-15T13:04:53.974Z,1.50
2019-05-15T13:05:57.722Z,1.20
2019-05-15T13:07:12.967Z,1.77
2019-05-15T13:08:08.402Z,1.52
2019-05-15T13:09:12.750Z,1.55
2019-05-15T13:10:18.401Z,1.15
2019-05-15T13:11:22.479Z,1.10
2019-05-15T13:12:28.565Z,1.42
2019-05-15T13:13:31.872Z,1.32
2019-05-15T13:14:35.599Z,1.40
2019-05-15T13:15:41.344Z,1.45
2019-05-15T13:16:44.985Z,1.60
2019-05-15T13:17:53.069Z,1.55
2019-05-15T13:18:54.364Z,1.80
2019-05-15T13:19:58.720Z,1.40
2019-05-15T13:21:02.572Z,1.30
2019-05-15T13:22:17.421Z,1.62
2019-05-15T13:23:11.936Z,1.82
2019-05-15T13:24:15.864Z,1.60
2019-05-15T13:25:23.173Z,1.40
2019-05-15T13:26:27.140Z,1.92
2019-05-15T13:27:31.031Z,1.57
2019-05-15T13:28:35.035Z,1.57
2019-05-15T13:29:38.786Z,2.15
2019-05-15T13:30:42.715Z,1.40
2019-05-15T13:31:47.873Z,1.37
2019-05-15T13:32:51.950Z,1.80
2019-05-15T13:33:55.685Z,1.60
2019-05-15T13:34:59.689Z,1.60
2019-05-15T13:36:03.374Z,1.50
2019-05-15T13:37:08.885Z,1.50
2019-05-15T13:38:12.834Z,1.52
2019-05-15T13:39:18.443Z,1.62
2019-05-15T13:40:34.059Z,1.85
2019-05-15T13:41:28.444Z,1.65
2019-05-15T13:42:32.330Z,1.82
2019-05-15T13:43:38.406Z,1.50
2019-05-15T13:44:41.667Z,1.70
2019-05-15T13:45:45.715Z,1.60
2019-05-15T13:46:49.472Z,1.30
2019-05-15T13:47:53.443Z,1.80
2019-05-15T13:48:59.157Z,1.55
2019-05-15T13:50:02.808Z,1.30
2019-05-15T13:51:06.587Z,1.77
2019-05-15T13:52:10.529Z,1.35
2019-05-15T13:53:14.283Z,1.47
2019-05-15T13:54:18.877Z,1.45
2019-05-15T13:55:25.749Z,1.57
2019-05-15T13:56:28.992Z,1.60
2019-05-15T13:57:32.972Z,1.80
2019-05-15T13:58:38.799Z,1.67
2019-05-15T13:59:42.363Z,1.55
2019-05-15T14:00:48.974Z,1.70
2019-05-15T14:01:51.755Z,1.20
2019-05-15T14:02:55.702Z,1.60
2019-05-15T14:03:59.447Z,1.60
2019-05-15T14:05:03.700Z,1.65
2019-05-15T14:06:09.271Z,1.27
2019-05-15T14:07:13.027Z,1.70
2019-05-15T14:08:18.061Z,1.40
2019-05-15T14:09:22.032Z,1.50
2019-05-15T14:10:25.811Z,1.80
2019-05-15T14:11:31.356Z,1.65
2019-05-15T14:12:35.211Z,2.10
2019-05-15T14:13:39.476Z,1.67
2019-05-15T14:14:43.743Z,1.60
2019-05-15T14:15:48.780Z,1.60
2019-05-15T14:16:52.736Z,1.55
2019-05-15T14:17:57.820Z,1.42
2019-05-15T14:19:01.655Z,1.32
2019-05-15T14:20:09.080Z,1.30
2019-05-15T14:21:12.552Z,1.45
2019-05-15T14:22:16.489Z,1.67
2019-05-15T14:23:20.287Z,2.02
2019-05-15T14:24:24.222Z,1.80
2019-05-15T14:25:27.981Z,1.70
2019-05-15T14:26:31.906Z,1.70
2019-05-15T14:27:35.663Z,1.65
2019-05-15T14:28:39.649Z,1.82
2019-05-15T14:29:43.639Z,1.30
2019-05-15T14:30:47.774Z,1.52
2019-05-15T14:31:51.524Z,1.77
2019-05-15T14:32:55.797Z,1.95
2019-05-15T14:33:59.880Z,1.95
2019-05-15T14:35:03.996Z,1.60
2019-05-15T14:36:08.435Z,1.85
2019-05-15T14:37:12.484Z,1.37
2019-05-15T14:38:18.091Z,1.65